sensor_id;sensor_type;location;lat;lon;timestamp;temperature;humidity
22838;DHT22;11585;51.450;-0.240;2023-01-30T00:02:51;8.30;99.90
22838;DHT22;11585;51.450;-0.240;2023-01-30T00:05:28;8.40;99.90
22838;DHT22;11585;51.450;-0.240;2023-01-30T00:08:24;8.30;99.90
22838;DHT22;11585;51.450;-0.240;2023-01-30T00:30:21;8.30;99.90
22838;DHT22;11585;51.450;-0.240;2023-01-30T00:46:53;7.40;99.90
22838;DHT22;11585;51.450;-0.240;2023-01-30T00:49:44;8.30;99.90
22838;DHT22;11585;51.450;-0.240;2023-01-30T00:52:30;8.30;99.90
22838;DHT22;11585;51.450;-0.240;2023-01-30T00:55:13;8.30;99.90
22838;DHT22;11585;51.450;-0.240;2023-01-30T00:57:53;8.30;99.90
22838;DHT22;11585;51.450;-0.240;2023-01-30T01:06:44;8.40;99.90
22838;DHT22;11585;51.450;-0.240;2023-01-30T01:09:12;7.70;99.90
22838;DHT22;11585;51.450;-0.240;2023-01-30T01:15:04;7.80;99.90
22838;DHT22;11585;51.450;-0.240;2023-01-30T01:18:26;8.30;99.90
22838;DHT22;11585;51.450;-0.240;2023-01-30T01:27:07;8.40;99.90
22838;DHT22;11585;51.450;-0.240;2023-01-30T01:29:56;8.30;99.90
22838;DHT22;11585;51.450;-0.240;2023-01-30T01:39:24;8.20;99.90
22838;DHT22;11585;51.450;-0.240;2023-01-30T01:46:10;8.40;99.90
22838;DHT22;11585;51.450;-0.240;2023-01-30T01:49:04;8.30;99.90
22838;DHT22;11585;51.450;-0.240;2023-01-30T01:55:24;8.40;99.90
22838;DHT22;11585;51.450;-0.240;2023-01-30T02:01:50;8.40;99.90
22838;DHT22;11585;51.450;-0.240;2023-01-30T02:04:44;8.30;99.90
22838;DHT22;11585;51.450;-0.240;2023-01-30T02:16:59;8.40;99.90
22838;DHT22;11585;51.450;-0.240;2023-01-30T02:39:01;7.60;99.90
22838;DHT22;11585;51.450;-0.240;2023-01-30T02:42:24;8.60;99.90
22838;DHT22;11585;51.450;-0.240;2023-01-30T02:48:28;8.10;99.90
22838;DHT22;11585;51.450;-0.240;2023-01-30T02:54:39;8.60;99.90
22838;DHT22;11585;51.450;-0.240;2023-01-30T02:57:41;8.00;99.90
22838;DHT22;11585;51.450;-0.240;2023-01-30T03:16:22;8.60;99.90
22838;DHT22;11585;51.450;-0.240;2023-01-30T03:18:54;8.60;99.90
22838;DHT22;11585;51.450;-0.240;2023-01-30T03:21:49;8.70;99.90
22838;DHT22;11585;51.450;-0.240;2023-01-30T03:24:44;9.00;99.90
22838;DHT22;11585;51.450;-0.240;2023-01-30T03:27:37;8.70;99.90
22838;DHT22;11585;51.450;-0.240;2023-01-30T03:30:11;8.70;99.90
22838;DHT22;11585;51.450;-0.240;2023-01-30T03:33:23;8.70;99.90
22838;DHT22;11585;51.450;-0.240;2023-01-30T03:36:11;8.70;99.90
22838;DHT22;11585;51.450;-0.240;2023-01-30T03:39:15;8.70;99.90
22838;DHT22;11585;51.450;-0.240;2023-01-30T03:44:35;8.70;99.90
22838;DHT22;11585;51.450;-0.240;2023-01-30T03:47:13;8.60;99.90
22838;DHT22;11585;51.450;-0.240;2023-01-30T03:50:17;9.00;99.90
22838;DHT22;11585;51.450;-0.240;2023-01-30T03:56:16;8.70;99.90
22838;DHT22;11585;51.450;-0.240;2023-01-30T03:58:48;8.80;99.90
22838;DHT22;11585;51.450;-0.240;2023-01-30T04:01:20;9.00;99.90
22838;DHT22;11585;51.450;-0.240;2023-01-30T04:04:03;8.90;99.90
22838;DHT22;11585;51.450;-0.240;2023-01-30T04:06:49;8.80;99.90
22838;DHT22;11585;51.450;-0.240;2023-01-30T04:09:23;8.80;99.90
22838;DHT22;11585;51.450;-0.240;2023-01-30T04:12:10;9.10;99.90
22838;DHT22;11585;51.450;-0.240;2023-01-30T04:21:09;8.90;99.90
22838;DHT22;11585;51.450;-0.240;2023-01-30T04:24:10;8.80;99.90
22838;DHT22;11585;51.450;-0.240;2023-01-30T04:26:39;8.60;99.90
22838;DHT22;11585;51.450;-0.240;2023-01-30T04:29:34;9.10;99.90
22838;DHT22;11585;51.450;-0.240;2023-01-30T04:32:48;7.90;99.90
22838;DHT22;11585;51.450;-0.240;2023-01-30T04:35:26;8.90;99.90
22838;DHT22;11585;51.450;-0.240;2023-01-30T04:38:20;8.80;99.90
22838;DHT22;11585;51.450;-0.240;2023-01-30T04:40:53;8.80;99.90
22838;DHT22;11585;51.450;-0.240;2023-01-30T04:46:59;8.90;99.90
22838;DHT22;11585;51.450;-0.240;2023-01-30T04:52:40;8.90;99.90
22838;DHT22;11585;51.450;-0.240;2023-01-30T04:55:24;9.00;99.90
22838;DHT22;11585;51.450;-0.240;2023-01-30T04:58:33;10.10;99.90
22838;DHT22;11585;51.450;-0.240;2023-01-30T05:04:16;9.00;99.90
22838;DHT22;11585;51.450;-0.240;2023-01-30T05:07:10;8.10;99.90
22838;DHT22;11585;51.450;-0.240;2023-01-30T05:16:18;9.00;99.90
22838;DHT22;11585;51.450;-0.240;2023-01-30T05:18:49;9.00;99.90
22838;DHT22;11585;51.450;-0.240;2023-01-30T05:21:23;9.00;99.90
22838;DHT22;11585;51.450;-0.240;2023-01-30T05:23:58;9.00;99.90
22838;DHT22;11585;51.450;-0.240;2023-01-30T05:27:13;9.00;99.90
22838;DHT22;11585;51.450;-0.240;2023-01-30T05:29:47;9.00;99.90
22838;DHT22;11585;51.450;-0.240;2023-01-30T05:32:56;9.10;99.90
22838;DHT22;11585;51.450;-0.240;2023-01-30T05:35:28;9.00;99.90
22838;DHT22;11585;51.450;-0.240;2023-01-30T05:41:52;9.00;99.90
22838;DHT22;11585;51.450;-0.240;2023-01-30T05:47:52;9.00;99.90
22838;DHT22;11585;51.450;-0.240;2023-01-30T05:50:27;9.00;99.90
22838;DHT22;11585;51.450;-0.240;2023-01-30T05:53:18;8.90;99.90
22838;DHT22;11585;51.450;-0.240;2023-01-30T05:56:01;9.10;99.90
22838;DHT22;11585;51.450;-0.240;2023-01-30T05:58:54;9.20;99.90
22838;DHT22;11585;51.450;-0.240;2023-01-30T06:01:46;9.10;99.90
22838;DHT22;11585;51.450;-0.240;2023-01-30T06:04:44;9.10;99.90
22838;DHT22;11585;51.450;-0.240;2023-01-30T06:10:08;9.10;99.90
22838;DHT22;11585;51.450;-0.240;2023-01-30T06:13:15;9.10;99.90
22838;DHT22;11585;51.450;-0.240;2023-01-30T06:19:02;9.10;99.90
22838;DHT22;11585;51.450;-0.240;2023-01-30T06:21:51;9.20;99.90
22838;DHT22;11585;51.450;-0.240;2023-01-30T06:27:37;9.00;99.90
22838;DHT22;11585;51.450;-0.240;2023-01-30T06:30:06;9.10;99.90
22838;DHT22;11585;51.450;-0.240;2023-01-30T06:36:12;9.20;99.90
22838;DHT22;11585;51.450;-0.240;2023-01-30T06:38:41;9.70;99.90
22838;DHT22;11585;51.450;-0.240;2023-01-30T06:41:34;9.20;99.90
22838;DHT22;11585;51.450;-0.240;2023-01-30T06:47:06;9.30;99.90
22838;DHT22;11585;51.450;-0.240;2023-01-30T06:49:44;9.20;99.90
22838;DHT22;11585;51.450;-0.240;2023-01-30T06:55:28;9.10;99.90
22838;DHT22;11585;51.450;-0.240;2023-01-30T06:58:16;10.00;99.90
22838;DHT22;11585;51.450;-0.240;2023-01-30T07:06:45;9.10;99.90
22838;DHT22;11585;51.450;-0.240;2023-01-30T07:09:14;9.10;99.90
22838;DHT22;11585;51.450;-0.240;2023-01-30T07:14:45;9.10;99.90
22838;DHT22;11585;51.450;-0.240;2023-01-30T07:17:30;9.10;99.90
22838;DHT22;11585;51.450;-0.240;2023-01-30T07:27:08;9.00;99.90
22838;DHT22;11585;51.450;-0.240;2023-01-30T07:29:52;9.00;99.90
22838;DHT22;11585;51.450;-0.240;2023-01-30T07:32:22;9.00;99.90
22838;DHT22;11585;51.450;-0.240;2023-01-30T07:35:17;9.00;99.90
22838;DHT22;11585;51.450;-0.240;2023-01-30T07:38:16;8.70;99.90
22838;DHT22;11585;51.450;-0.240;2023-01-30T07:41:03;8.90;99.90
22838;DHT22;11585;51.450;-0.240;2023-01-30T07:43:47;8.20;99.90
22838;DHT22;11585;51.450;-0.240;2023-01-30T07:46:33;8.30;99.90
22838;DHT22;11585;51.450;-0.240;2023-01-30T07:49:37;8.90;99.90
22838;DHT22;11585;51.450;-0.240;2023-01-30T07:58:33;8.90;99.90
22838;DHT22;11585;51.450;-0.240;2023-01-30T08:01:52;8.90;99.90
22838;DHT22;11585;51.450;-0.240;2023-01-30T08:04:32;8.90;99.90
22838;DHT22;11585;51.450;-0.240;2023-01-30T08:07:03;8.90;99.90
22838;DHT22;11585;51.450;-0.240;2023-01-30T08:09:40;8.80;99.90
22838;DHT22;11585;51.450;-0.240;2023-01-30T08:15:43;8.70;99.90
22838;DHT22;11585;51.450;-0.240;2023-01-30T08:21:24;9.50;99.90
22838;DHT22;11585;51.450;-0.240;2023-01-30T08:24:02;8.80;99.90
22838;DHT22;11585;51.450;-0.240;2023-01-30T08:26:31;8.70;99.90
22838;DHT22;11585;51.450;-0.240;2023-01-30T08:29:15;8.80;99.90
22838;DHT22;11585;51.450;-0.240;2023-01-30T08:32:20;8.70;99.90
22838;DHT22;11585;51.450;-0.240;2023-01-30T08:35:21;9.00;99.90
22838;DHT22;11585;51.450;-0.240;2023-01-30T08:38:18;9.60;99.90
22838;DHT22;11585;51.450;-0.240;2023-01-30T08:41:03;8.70;99.90
22838;DHT22;11585;51.450;-0.240;2023-01-30T08:46:48;8.70;99.90
22838;DHT22;11585;51.450;-0.240;2023-01-30T08:49:33;8.70;99.90
22838;DHT22;11585;51.450;-0.240;2023-01-30T09:01:22;9.40;99.90
22838;DHT22;11585;51.450;-0.240;2023-01-30T09:04:17;8.70;99.90
22838;DHT22;11585;51.450;-0.240;2023-01-30T09:07:12;8.70;99.90
22838;DHT22;11585;51.450;-0.240;2023-01-30T09:10:17;8.60;99.90
22838;DHT22;11585;51.450;-0.240;2023-01-30T09:19:30;8.70;99.90
22838;DHT22;11585;51.450;-0.240;2023-01-30T09:26:05;9.20;99.90
22838;DHT22;11585;51.450;-0.240;2023-01-30T09:28:40;8.60;99.90
22838;DHT22;11585;51.450;-0.240;2023-01-30T09:51:39;8.70;99.90
22838;DHT22;11585;51.450;-0.240;2023-01-30T09:57:55;8.90;99.90
22838;DHT22;11585;51.450;-0.240;2023-01-30T10:01:10;8.60;99.90
22838;DHT22;11585;51.450;-0.240;2023-01-30T10:04:43;8.70;99.90
22838;DHT22;11585;51.450;-0.240;2023-01-30T10:29:36;9.60;99.90
22838;DHT22;11585;51.450;-0.240;2023-01-30T10:42:43;8.70;99.90
22838;DHT22;11585;51.450;-0.240;2023-01-30T10:51:42;8.80;99.90
22838;DHT22;11585;51.450;-0.240;2023-01-30T10:57:53;8.60;99.90
22838;DHT22;11585;51.450;-0.240;2023-01-30T11:00:44;8.80;99.90
22838;DHT22;11585;51.450;-0.240;2023-01-30T11:03:49;9.80;99.90
22838;DHT22;11585;51.450;-0.240;2023-01-30T11:06:41;8.80;99.90
22838;DHT22;11585;51.450;-0.240;2023-01-30T11:09:22;9.20;99.90
22838;DHT22;11585;51.450;-0.240;2023-01-30T11:15:53;8.90;99.90
22838;DHT22;11585;51.450;-0.240;2023-01-30T11:23:21;8.60;99.90
22838;DHT22;11585;51.450;-0.240;2023-01-30T11:29:32;9.00;99.90
22838;DHT22;11585;51.450;-0.240;2023-01-30T11:32:26;9.00;99.90
22838;DHT22;11585;51.450;-0.240;2023-01-30T11:45:41;8.60;99.90
22838;DHT22;11585;51.450;-0.240;2023-01-30T11:48:55;9.10;99.90
22838;DHT22;11585;51.450;-0.240;2023-01-30T11:51:23;9.10;99.90
22838;DHT22;11585;51.450;-0.240;2023-01-30T11:54:03;9.00;99.90
22838;DHT22;11585;51.450;-0.240;2023-01-30T11:56:57;9.20;99.90
22838;DHT22;11585;51.450;-0.240;2023-01-30T12:26:20;9.40;99.90
22838;DHT22;11585;51.450;-0.240;2023-01-30T12:29:42;8.50;99.90
22838;DHT22;11585;51.450;-0.240;2023-01-30T12:49:37;9.60;99.90
22838;DHT22;11585;51.450;-0.240;2023-01-30T13:16:21;9.60;99.90
22838;DHT22;11585;51.450;-0.240;2023-01-30T13:33:24;9.00;99.90
22838;DHT22;11585;51.450;-0.240;2023-01-30T13:36:41;9.80;99.90
22838;DHT22;11585;51.450;-0.240;2023-01-30T13:46:12;10.00;99.90
22838;DHT22;11585;51.450;-0.240;2023-01-30T13:59:10;10.00;99.90
22838;DHT22;11585;51.450;-0.240;2023-01-30T14:18:06;10.10;99.90
22838;DHT22;11585;51.450;-0.240;2023-01-30T14:21:46;10.10;99.90
22838;DHT22;11585;51.450;-0.240;2023-01-30T14:45:16;9.50;99.90
22838;DHT22;11585;51.450;-0.240;2023-01-30T14:48:49;10.20;99.90
22838;DHT22;11585;51.450;-0.240;2023-01-30T14:55:23;10.30;99.90
22838;DHT22;11585;51.450;-0.240;2023-01-30T15:08:43;9.40;99.90
22838;DHT22;11585;51.450;-0.240;2023-01-30T15:22:30;10.20;99.90
22838;DHT22;11585;51.450;-0.240;2023-01-30T15:51:44;10.20;99.90
22838;DHT22;11585;51.450;-0.240;2023-01-30T15:54:40;10.20;99.90
22838;DHT22;11585;51.450;-0.240;2023-01-30T16:04:27;10.60;99.90
22838;DHT22;11585;51.450;-0.240;2023-01-30T16:07:41;10.00;99.90
22838;DHT22;11585;51.450;-0.240;2023-01-30T16:10:53;9.30;99.90
22838;DHT22;11585;51.450;-0.240;2023-01-30T16:13:47;10.10;99.90
22838;DHT22;11585;51.450;-0.240;2023-01-30T16:17:01;10.50;99.90
22838;DHT22;11585;51.450;-0.240;2023-01-30T16:19:44;10.10;99.90
22838;DHT22;11585;51.450;-0.240;2023-01-30T16:23:01;10.20;99.90
22838;DHT22;11585;51.450;-0.240;2023-01-30T16:25:54;10.10;99.90
22838;DHT22;11585;51.450;-0.240;2023-01-30T16:28:38;10.00;99.90
22838;DHT22;11585;51.450;-0.240;2023-01-30T16:31:11;10.00;99.90
22838;DHT22;11585;51.450;-0.240;2023-01-30T16:33:39;10.00;99.90
22838;DHT22;11585;51.450;-0.240;2023-01-30T16:36:31;10.00;99.90
22838;DHT22;11585;51.450;-0.240;2023-01-30T16:39:36;10.00;99.90
22838;DHT22;11585;51.450;-0.240;2023-01-30T16:42:24;9.60;99.90
22838;DHT22;11585;51.450;-0.240;2023-01-30T16:44:50;10.00;99.90
22838;DHT22;11585;51.450;-0.240;2023-01-30T16:47:24;10.00;99.90
22838;DHT22;11585;51.450;-0.240;2023-01-30T16:49:52;10.10;99.90
22838;DHT22;11585;51.450;-0.240;2023-01-30T16:55:25;10.00;99.90
22838;DHT22;11585;51.450;-0.240;2023-01-30T16:57:53;10.00;99.90
22838;DHT22;11585;51.450;-0.240;2023-01-30T17:00:40;10.00;99.90
22838;DHT22;11585;51.450;-0.240;2023-01-30T17:06:47;9.90;99.90
22838;DHT22;11585;51.450;-0.240;2023-01-30T17:17:36;9.90;99.90
22838;DHT22;11585;51.450;-0.240;2023-01-30T17:20:03;9.80;99.90
22838;DHT22;11585;51.450;-0.240;2023-01-30T17:22:31;9.80;99.90
22838;DHT22;11585;51.450;-0.240;2023-01-30T17:25:13;9.80;99.90
22838;DHT22;11585;51.450;-0.240;2023-01-30T17:27:41;9.80;99.90
22838;DHT22;11585;51.450;-0.240;2023-01-30T17:30:15;9.80;99.90
22838;DHT22;11585;51.450;-0.240;2023-01-30T17:32:50;9.80;99.90
22838;DHT22;11585;51.450;-0.240;2023-01-30T17:35:17;9.90;99.90
22838;DHT22;11585;51.450;-0.240;2023-01-30T17:37:43;9.80;99.90
22838;DHT22;11585;51.450;-0.240;2023-01-30T17:40:21;9.70;99.90
22838;DHT22;11585;51.450;-0.240;2023-01-30T17:42:49;9.70;99.90
22838;DHT22;11585;51.450;-0.240;2023-01-30T17:45:14;9.70;99.90
22838;DHT22;11585;51.450;-0.240;2023-01-30T17:47:40;9.70;99.90
22838;DHT22;11585;51.450;-0.240;2023-01-30T17:50:11;9.70;99.90
22838;DHT22;11585;51.450;-0.240;2023-01-30T17:52:37;9.70;99.90
22838;DHT22;11585;51.450;-0.240;2023-01-30T17:55:03;9.70;99.90
22838;DHT22;11585;51.450;-0.240;2023-01-30T17:57:29;9.80;99.90
22838;DHT22;11585;51.450;-0.240;2023-01-30T17:59:55;9.60;99.90
22838;DHT22;11585;51.450;-0.240;2023-01-30T18:02:20;9.60;99.90
22838;DHT22;11585;51.450;-0.240;2023-01-30T18:04:46;9.60;99.90
22838;DHT22;11585;51.450;-0.240;2023-01-30T18:07:13;9.60;99.90
22838;DHT22;11585;51.450;-0.240;2023-01-30T18:09:40;8.70;99.90
22838;DHT22;11585;51.450;-0.240;2023-01-30T18:12:06;9.50;99.90
22838;DHT22;11585;51.450;-0.240;2023-01-30T18:14:35;9.50;99.90
22838;DHT22;11585;51.450;-0.240;2023-01-30T18:17:01;9.80;99.90
22838;DHT22;11585;51.450;-0.240;2023-01-30T18:19:27;9.70;99.90
22838;DHT22;11585;51.450;-0.240;2023-01-30T18:21:55;9.40;99.90
22838;DHT22;11585;51.450;-0.240;2023-01-30T18:24:22;9.40;99.90
22838;DHT22;11585;51.450;-0.240;2023-01-30T18:26:48;9.40;99.90
22838;DHT22;11585;51.450;-0.240;2023-01-30T18:29:13;9.30;99.90
22838;DHT22;11585;51.450;-0.240;2023-01-30T18:31:39;9.30;99.90
22838;DHT22;11585;51.450;-0.240;2023-01-30T18:34:05;9.30;99.90
22838;DHT22;11585;51.450;-0.240;2023-01-30T18:36:35;9.30;99.90
22838;DHT22;11585;51.450;-0.240;2023-01-30T18:39:01;9.30;99.90
22838;DHT22;11585;51.450;-0.240;2023-01-30T18:41:28;9.30;99.90
22838;DHT22;11585;51.450;-0.240;2023-01-30T18:44:00;9.20;99.90
22838;DHT22;11585;51.450;-0.240;2023-01-30T18:46:27;8.90;99.90
22838;DHT22;11585;51.450;-0.240;2023-01-30T18:48:54;10.30;99.90
22838;DHT22;11585;51.450;-0.240;2023-01-30T18:51:28;9.20;99.90
22838;DHT22;11585;51.450;-0.240;2023-01-30T18:53:54;9.10;99.90
22838;DHT22;11585;51.450;-0.240;2023-01-30T18:56:26;9.10;99.90
22838;DHT22;11585;51.450;-0.240;2023-01-30T18:58:56;9.10;99.90
22838;DHT22;11585;51.450;-0.240;2023-01-30T19:01:25;9.10;99.90
22838;DHT22;11585;51.450;-0.240;2023-01-30T19:04:10;9.10;99.90
22838;DHT22;11585;51.450;-0.240;2023-01-30T19:06:38;9.10;99.90
22838;DHT22;11585;51.450;-0.240;2023-01-30T19:09:04;9.00;99.90
22838;DHT22;11585;51.450;-0.240;2023-01-30T19:11:30;9.00;99.90
22838;DHT22;11585;51.450;-0.240;2023-01-30T19:14:14;9.20;99.90
22838;DHT22;11585;51.450;-0.240;2023-01-30T19:16:40;9.00;99.90
22838;DHT22;11585;51.450;-0.240;2023-01-30T19:19:07;8.90;99.90
22838;DHT22;11585;51.450;-0.240;2023-01-30T19:24:54;8.90;99.90
22838;DHT22;11585;51.450;-0.240;2023-01-30T19:27:20;8.90;99.90
22838;DHT22;11585;51.450;-0.240;2023-01-30T19:29:47;8.90;99.90
22838;DHT22;11585;51.450;-0.240;2023-01-30T19:32:15;8.60;99.90
22838;DHT22;11585;51.450;-0.240;2023-01-30T19:34:41;8.90;99.90
22838;DHT22;11585;51.450;-0.240;2023-01-30T19:37:08;8.90;99.90
22838;DHT22;11585;51.450;-0.240;2023-01-30T19:39:33;8.80;99.90
22838;DHT22;11585;51.450;-0.240;2023-01-30T19:42:18;8.80;99.90
22838;DHT22;11585;51.450;-0.240;2023-01-30T19:44:43;8.80;99.90
22838;DHT22;11585;51.450;-0.240;2023-01-30T19:47:09;9.30;99.90
22838;DHT22;11585;51.450;-0.240;2023-01-30T19:49:35;8.70;99.90
22838;DHT22;11585;51.450;-0.240;2023-01-30T19:52:09;8.70;99.90
22838;DHT22;11585;51.450;-0.240;2023-01-30T19:54:35;8.70;99.90
22838;DHT22;11585;51.450;-0.240;2023-01-30T19:57:00;9.00;99.90
22838;DHT22;11585;51.450;-0.240;2023-01-30T19:59:26;8.60;99.90
22838;DHT22;11585;51.450;-0.240;2023-01-30T20:01:53;8.70;99.90
22838;DHT22;11585;51.450;-0.240;2023-01-30T20:04:19;8.70;99.90
22838;DHT22;11585;51.450;-0.240;2023-01-30T20:06:44;9.10;99.90
22838;DHT22;11585;51.450;-0.240;2023-01-30T20:09:11;8.60;99.90
22838;DHT22;11585;51.450;-0.240;2023-01-30T20:15:00;8.60;99.90
22838;DHT22;11585;51.450;-0.240;2023-01-30T20:20:15;8.60;99.90
22838;DHT22;11585;51.450;-0.240;2023-01-30T20:22:42;8.60;99.90
22838;DHT22;11585;51.450;-0.240;2023-01-30T20:25:08;8.60;99.90
22838;DHT22;11585;51.450;-0.240;2023-01-30T20:27:34;8.50;99.90
22838;DHT22;11585;51.450;-0.240;2023-01-30T20:29:59;8.50;99.90
22838;DHT22;11585;51.450;-0.240;2023-01-30T20:35:47;8.50;99.90
22838;DHT22;11585;51.450;-0.240;2023-01-30T20:38:13;8.50;99.90
22838;DHT22;11585;51.450;-0.240;2023-01-30T20:40:38;8.50;99.90
22838;DHT22;11585;51.450;-0.240;2023-01-30T20:43:06;8.50;99.90
22838;DHT22;11585;51.450;-0.240;2023-01-30T20:45:32;8.90;99.90
22838;DHT22;11585;51.450;-0.240;2023-01-30T20:50:43;8.40;99.90
22838;DHT22;11585;51.450;-0.240;2023-01-30T20:53:14;8.40;99.90
22838;DHT22;11585;51.450;-0.240;2023-01-30T20:55:39;8.40;99.90
22838;DHT22;11585;51.450;-0.240;2023-01-30T20:58:05;8.40;99.90
22838;DHT22;11585;51.450;-0.240;2023-01-30T21:00:34;8.60;99.90
22838;DHT22;11585;51.450;-0.240;2023-01-30T21:03:02;8.40;99.90
22838;DHT22;11585;51.450;-0.240;2023-01-30T21:05:28;8.40;99.90
22838;DHT22;11585;51.450;-0.240;2023-01-30T21:07:54;8.30;99.90
22838;DHT22;11585;51.450;-0.240;2023-01-30T21:10:29;8.30;99.90
22838;DHT22;11585;51.450;-0.240;2023-01-30T21:12:56;8.30;99.90
22838;DHT22;11585;51.450;-0.240;2023-01-30T21:15:21;9.10;99.90
22838;DHT22;11585;51.450;-0.240;2023-01-30T21:17:47;8.30;99.90
22838;DHT22;11585;51.450;-0.240;2023-01-30T21:20:13;8.20;99.90
22838;DHT22;11585;51.450;-0.240;2023-01-30T21:22:39;8.30;99.90
22838;DHT22;11585;51.450;-0.240;2023-01-30T21:25:05;8.90;99.90
22838;DHT22;11585;51.450;-0.240;2023-01-30T21:27:31;8.20;99.90
22838;DHT22;11585;51.450;-0.240;2023-01-30T21:29:56;8.20;99.90
22838;DHT22;11585;51.450;-0.240;2023-01-30T21:32:22;8.20;99.90
22838;DHT22;11585;51.450;-0.240;2023-01-30T21:34:48;8.20;99.90
22838;DHT22;11585;51.450;-0.240;2023-01-30T21:37:13;8.20;99.90
22838;DHT22;11585;51.450;-0.240;2023-01-30T21:40:18;8.80;99.90
22838;DHT22;11585;51.450;-0.240;2023-01-30T21:43:23;8.10;99.90
22838;DHT22;11585;51.450;-0.240;2023-01-30T21:45:48;8.20;99.90
22838;DHT22;11585;51.450;-0.240;2023-01-30T21:48:14;8.30;99.90
22838;DHT22;11585;51.450;-0.240;2023-01-30T21:50:40;8.10;99.90
22838;DHT22;11585;51.450;-0.240;2023-01-30T21:53:10;8.20;99.90
22838;DHT22;11585;51.450;-0.240;2023-01-30T21:55:35;8.10;99.90
22838;DHT22;11585;51.450;-0.240;2023-01-30T21:58:01;8.00;99.90
22838;DHT22;11585;51.450;-0.240;2023-01-30T22:00:26;8.10;99.90
22838;DHT22;11585;51.450;-0.240;2023-01-30T22:02:53;8.10;99.90
22838;DHT22;11585;51.450;-0.240;2023-01-30T22:05:19;8.00;99.90
22838;DHT22;11585;51.450;-0.240;2023-01-30T22:07:44;8.00;99.90
22838;DHT22;11585;51.450;-0.240;2023-01-30T22:10:10;8.00;99.90
22838;DHT22;11585;51.450;-0.240;2023-01-30T22:15:23;8.00;99.90
22838;DHT22;11585;51.450;-0.240;2023-01-30T22:17:50;8.00;99.90
22838;DHT22;11585;51.450;-0.240;2023-01-30T22:20:16;7.90;99.90
22838;DHT22;11585;51.450;-0.240;2023-01-30T22:22:44;8.00;99.90
22838;DHT22;11585;51.450;-0.240;2023-01-30T22:25:10;8.00;99.90
22838;DHT22;11585;51.450;-0.240;2023-01-30T22:27:38;7.90;99.90
22838;DHT22;11585;51.450;-0.240;2023-01-30T22:30:04;8.00;99.90
22838;DHT22;11585;51.450;-0.240;2023-01-30T22:35:36;7.90;99.90
22838;DHT22;11585;51.450;-0.240;2023-01-30T22:38:01;7.90;99.90
22838;DHT22;11585;51.450;-0.240;2023-01-30T22:40:30;7.90;99.90
22838;DHT22;11585;51.450;-0.240;2023-01-30T22:43:15;8.10;99.90
22838;DHT22;11585;51.450;-0.240;2023-01-30T22:45:41;7.80;99.90
22838;DHT22;11585;51.450;-0.240;2023-01-30T22:48:06;8.00;99.90
22838;DHT22;11585;51.450;-0.240;2023-01-30T22:50:32;7.80;99.90
22838;DHT22;11585;51.450;-0.240;2023-01-30T22:53:18;7.80;99.90
22838;DHT22;11585;51.450;-0.240;2023-01-30T22:55:43;7.80;99.90
22838;DHT22;11585;51.450;-0.240;2023-01-30T22:58:09;8.00;99.90
22838;DHT22;11585;51.450;-0.240;2023-01-30T23:00:34;8.10;99.90
22838;DHT22;11585;51.450;-0.240;2023-01-30T23:03:21;8.30;99.90
22838;DHT22;11585;51.450;-0.240;2023-01-30T23:05:57;7.80;99.90
22838;DHT22;11585;51.450;-0.240;2023-01-30T23:08:23;7.70;99.90
22838;DHT22;11585;51.450;-0.240;2023-01-30T23:10:49;7.70;99.90
22838;DHT22;11585;51.450;-0.240;2023-01-30T23:13:36;7.80;99.90
22838;DHT22;11585;51.450;-0.240;2023-01-30T23:16:03;7.80;99.90
22838;DHT22;11585;51.450;-0.240;2023-01-30T23:18:29;7.70;99.90
22838;DHT22;11585;51.450;-0.240;2023-01-30T23:21:14;8.20;99.90
22838;DHT22;11585;51.450;-0.240;2023-01-30T23:26:47;7.70;99.90
22838;DHT22;11585;51.450;-0.240;2023-01-30T23:29:16;7.70;99.90
22838;DHT22;11585;51.450;-0.240;2023-01-30T23:31:45;7.70;99.90
22838;DHT22;11585;51.450;-0.240;2023-01-30T23:34:18;7.80;99.90
22838;DHT22;11585;51.450;-0.240;2023-01-30T23:36:44;7.70;99.90
22838;DHT22;11585;51.450;-0.240;2023-01-30T23:39:11;7.90;99.90
22838;DHT22;11585;51.450;-0.240;2023-01-30T23:41:41;7.70;99.90
22838;DHT22;11585;51.450;-0.240;2023-01-30T23:44:07;7.90;99.90
22838;DHT22;11585;51.450;-0.240;2023-01-30T23:46:35;7.90;99.90
22838;DHT22;11585;51.450;-0.240;2023-01-30T23:49:04;7.60;99.90
22838;DHT22;11585;51.450;-0.240;2023-01-30T23:51:32;7.60;99.90
22838;DHT22;11585;51.450;-0.240;2023-01-30T23:53:58;8.50;99.90
22838;DHT22;11585;51.450;-0.240;2023-01-30T23:56:26;7.70;99.90
22838;DHT22;11585;51.450;-0.240;2023-01-30T23:58:52;7.70;99.90
